Time;durP1;ratioP1;P1;durP2;ratioP2;P2;SDS_P1;SDS_P2;PMS_P1;PMS_P2;Temp;Humidity;BMP_temperature;BMP_pressure;BME280_temperature;BME280_humidity;BME280_pressure;Samples;Min_cycle;Max_cycle;Signal;HPM_P1;HPM_P2
2023/04/07 00:00:25;;;;;;;12.23;6.32;;;;;;;10.81;35.53;101631.91;5007164;28;99455;-70
2023/04/07 00:02:52;;;;;;;14.05;6.57;;;;;;;11.08;35.11;101625.97;5011362;28;97420;-70
2023/04/07 00:05:18;;;;;;;9.93;6.10;;;;;;;10.94;35.04;101630.72;5008382;28;96920;-70
2023/04/07 00:07:45;;;;;;;11.65;6.25;;;;;;;10.94;35.19;101630.72;5012579;28;98192;-69
2023/04/07 00:10:13;;;;;;;14.27;6.03;;;;;;;10.83;35.44;101628.31;5009581;28;98893;-69
2023/04/07 00:12:39;;;;;;;10.20;6.18;;;;;;;10.78;36.11;101630.19;4999773;28;97898;-69
2023/04/07 00:15:07;;;;;;;11.30;6.70;;;;;;;10.70;36.14;101626.84;5011010;28;97359;-69
2023/04/07 00:17:33;;;;;;;10.73;6.05;;;;;;;10.81;36.03;101629.25;5011922;28;97741;-70
2023/04/07 00:20:00;;;;;;;11.93;7.40;;;;;;;10.75;35.65;101639.06;5005423;28;97967;-70
2023/04/07 00:22:27;;;;;;;22.58;6.72;;;;;;;10.54;36.35;101630.72;5012928;28;98065;-70
2023/04/07 00:24:53;;;;;;;16.50;6.13;;;;;;;10.81;36.07;101632.78;5010243;28;97365;-70
2023/04/07 00:27:22;;;;;;;11.15;5.68;;;;;;;10.65;35.56;101634.00;5011138;28;99035;-70
2023/04/07 00:29:48;;;;;;;17.08;6.40;;;;;;;10.57;36.02;101626.22;5007542;28;100616;-69
2023/04/07 00:32:14;;;;;;;12.30;6.75;;;;;;;10.71;36.11;101626.81;5006211;28;98882;-69
2023/04/07 00:34:41;;;;;;;12.32;7.38;;;;;;;10.45;36.47;101625.63;5013695;28;97950;-70
2023/04/07 00:37:07;;;;;;;17.65;7.10;;;;;;;10.56;36.18;101619.22;5001061;28;98914;-70
2023/04/07 00:39:34;;;;;;;10.75;6.32;;;;;;;10.81;35.12;101621.31;5003793;28;98820;-70
2023/04/07 00:42:00;;;;;;;12.82;6.43;;;;;;;10.82;35.23;101625.72;5012665;28;96924;-71
2023/04/07 00:44:28;;;;;;;15.43;6.88;;;;;;;10.78;34.83;101620.47;5010995;28;96767;-69
2023/04/07 00:46:55;;;;;;;14.60;6.60;;;;;;;10.57;35.23;101620.94;5011607;28;99424;-71
2023/04/07 00:49:21;;;;;;;11.68;6.10;;;;;;;10.34;36.04;101610.88;5011459;27;99550;-71
2023/04/07 00:51:47;;;;;;;12.38;5.93;;;;;;;10.52;34.79;101622.81;5012361;28;96846;-70
2023/04/07 00:54:15;;;;;;;11.73;6.25;;;;;;;10.43;35.91;101622.16;5009262;28;96792;-70
2023/04/07 00:56:41;;;;;;;14.15;6.57;;;;;;;10.57;36.05;101610.38;5011676;28;98942;-69
2023/04/07 00:59:07;;;;;;;12.18;7.00;;;;;;;10.57;35.98;101613.03;5007716;28;99096;-70
2023/04/07 01:01:41;;;;;;;12.40;5.57;;;;;;;10.46;35.63;101617.69;5014373;28;98497;-70
2023/04/07 01:04:12;;;;;;;12.63;6.30;;;;;;;10.41;36.43;101611.63;5007008;28;96999;-69
2023/04/07 01:06:43;;;;;;;15.02;6.15;;;;;;;10.59;36.22;101599.78;5005335;27;98851;-70
2023/04/07 01:09:18;;;;;;;12.73;6.00;;;;;;;10.48;35.41;101599.16;5007056;28;98904;-69
2023/04/07 01:11:53;;;;;;;11.40;5.68;;;;;;;10.44;35.77;101603.63;5013998;28;96842;-70
2023/04/07 01:14:21;;;;;;;8.15;5.43;;;;;;;10.73;35.12;101603.88;5008808;28;96966;-71
2023/04/07 01:16:51;;;;;;;12.93;5.80;;;;;;;10.40;35.36;101596.66;5007908;28;98978;-70
2023/04/07 01:19:32;;;;;;;10.60;5.53;;;;;;;10.79;33.54;101601.06;5012240;28;98777;-70
2023/04/07 01:21:59;;;;;;;10.35;6.05;;;;;;;10.58;34.27;101601.53;5005595;28;99626;-69
2023/04/07 01:24:42;;;;;;;9.60;5.88;;;;;;;10.67;34.71;101593.44;5011685;28;97208;-70
2023/04/07 01:27:19;;;;;;;13.35;6.63;;;;;;;10.22;34.98;101587.38;5012787;28;98226;-70
2023/04/07 01:29:49;;;;;;;13.02;6.07;;;;;;;10.47;34.51;101586.84;5011695;28;98995;-70
2023/04/07 01:32:19;;;;;;;8.60;5.35;;;;;;;10.39;34.76;101584.34;5007206;28;97281;-69
2023/04/07 01:34:48;;;;;;;10.90;5.82;;;;;;;10.36;34.99;101581.78;5015854;28;97175;-70
2023/04/07 01:37:16;;;;;;;10.18;5.72;;;;;;;10.38;35.09;101583.47;5009212;28;99188;-72
2023/04/07 01:39:42;;;;;;;13.60;5.40;;;;;;;10.08;36.35;101572.66;5011603;28;99099;-70
2023/04/07 01:42:10;;;;;;;9.80;5.72;;;;;;;10.43;35.65;101591.34;5005929;28;96856;-71
2023/04/07 01:44:37;;;;;;;14.75;6.40;;;;;;;10.43;35.87;101585.19;5004185;27;98764;-72
2023/04/07 01:47:05;;;;;;;11.77;5.72;;;;;;;10.38;35.80;101587.91;5008336;28;101386;-70
2023/04/07 01:49:35;;;;;;;12.40;5.95;;;;;;;10.26;35.94;101588.16;5019634;28;99054;-70
2023/04/07 01:52:03;;;;;;;14.23;6.18;;;;;;;10.25;36.00;101586.41;5004430;28;101575;-70
2023/04/07 01:54:30;;;;;;;12.77;5.90;;;;;;;10.06;36.55;101582.38;5009187;28;97049;-72
2023/04/07 01:56:56;;;;;;;14.73;6.25;;;;;;;9.94;36.74;101583.50;5006331;28;99551;-71
2023/04/07 01:59:25;;;;;;;11.23;6.18;;;;;;;10.02;36.47;101583.34;5013494;27;98956;-69
2023/04/07 02:01:51;;;;;;;12.02;5.97;;;;;;;10.11;36.73;101583.19;5009918;28;97320;-71
2023/04/07 02:04:25;;;;;;;10.70;5.65;;;;;;;9.75;37.55;101585.63;5003990;28;97885;-71
2023/04/07 02:06:54;;;;;;;11.23;5.93;;;;;;;10.21;36.67;101584.75;5009669;28;99359;-70
2023/04/07 02:09:23;;;;;;;9.80;5.68;;;;;;;10.09;37.27;101585.84;4998296;28;98816;-70
2023/04/07 02:11:53;;;;;;;12.25;5.97;;;;;;;10.41;35.36;101582.56;4996434;28;97017;-70
2023/04/07 02:14:23;;;;;;;15.60;5.75;;;;;;;10.21;36.12;101579.47;5007218;28;98581;-70
2023/04/07 02:16:51;;;;;;;11.32;5.53;;;;;;;10.20;35.15;101575.09;5002989;28;99161;-69
2023/04/07 02:19:17;;;;;;;9.98;5.88;;;;;;;10.13;34.80;101571.66;5001817;28;99144;-70
2023/04/07 02:21:47;;;;;;;12.88;5.60;;;;;;;10.16;34.85;101573.38;5010485;28;96716;-71
2023/04/07 02:24:14;;;;;;;10.05;5.50;;;;;;;10.28;34.67;101570.50;4992047;28;98038;-72
2023/04/07 02:26:40;;;;;;;11.45;5.82;;;;;;;10.09;34.82;101566.47;4999255;28;99617;-72
2023/04/07 02:29:06;;;;;;;9.35;5.15;;;;;;;10.36;34.12;101564.19;5011968;28;100488;-72
2023/04/07 02:31:33;;;;;;;10.85;6.15;;;;;;;10.63;33.63;101569.75;5008036;28;96798;-70
2023/04/07 02:33:59;;;;;;;12.25;6.25;;;;;;;10.60;33.68;101567.16;5012775;28;97009;-70
2023/04/07 02:36:26;;;;;;;9.30;6.25;;;;;;;10.60;33.54;101560.09;5006256;27;99302;-70
2023/04/07 02:38:54;;;;;;;12.85;5.93;;;;;;;10.52;33.71;101564.69;5012451;28;99219;-70
2023/04/07 02:41:21;;;;;;;12.55;5.90;;;;;;;10.70;33.77;101558.09;5011142;28;99315;-69
2023/04/07 02:43:47;;;;;;;12.57;5.80;;;;;;;10.57;34.01;101567.22;5008916;28;96808;-69
2023/04/07 02:46:13;;;;;;;14.23;6.28;;;;;;;10.62;34.09;101566.25;5004761;28;99009;-70
2023/04/07 02:48:40;;;;;;;10.02;6.03;;;;;;;10.60;33.85;101562.75;5020199;28;98942;-70
2023/04/07 02:51:06;;;;;;;9.10;5.95;;;;;;;10.64;33.94;101555.59;5006528;28;97038;-70
2023/04/07 02:53:32;;;;;;;12.55;6.15;;;;;;;10.62;34.12;101563.59;5015646;28;97571;-71
2023/04/07 02:56:00;;;;;;;10.65;6.00;;;;;;;10.49;34.42;101563.91;5002485;28;99429;-70
2023/04/07 02:58:26;;;;;;;10.52;6.05;;;;;;;10.24;34.69;101556.47;5008813;28;98780;-70
2023/04/07 03:00:53;;;;;;;16.92;6.03;;;;;;;10.51;34.34;101562.06;5011337;28;98687;-70
2023/04/07 03:03:19;;;;;;;10.15;6.22;;;;;;;10.40;34.28;101562.31;5006737;28;97146;-70
2023/04/07 03:05:46;;;;;;;11.57;5.80;;;;;;;10.46;34.27;101559.53;5013064;28;99507;-71
2023/04/07 03:08:12;;;;;;;11.55;6.28;;;;;;;10.38;34.83;101556.19;5014578;28;99871;-69
2023/04/07 03:10:38;;;;;;;12.20;7.03;;;;;;;10.46;34.72;101562.19;5007783;28;97356;-71
2023/04/07 03:13:07;;;;;;;11.35;6.55;;;;;;;10.44;34.65;101553.41;5003766;28;98549;-71
2023/04/07 03:15:33;;;;;;;11.88;6.28;;;;;;;10.33;34.53;101556.31;5004375;28;99007;-70
2023/04/07 03:18:00;;;;;;;11.68;5.95;;;;;;;10.33;34.67;101556.31;5015852;28;99569;-71
2023/04/07 03:20:26;;;;;;;10.55;5.57;;;;;;;10.30;34.54;101550.22;5004038;28;98635;-70
2023/04/07 03:22:52;;;;;;;12.48;5.80;;;;;;;10.25;34.79;101554.72;5013585;28;97378;-70
2023/04/07 03:25:19;;;;;;;16.00;6.82;;;;;;;10.34;34.70;101541.31;5008481;28;99161;-70
2023/04/07 03:27:45;;;;;;;15.35;6.28;;;;;;;10.27;34.92;101547.63;5010270;28;98876;-71
2023/04/07 03:30:13;;;;;;;11.18;5.70;;;;;;;10.48;34.79;101547.19;5007677;28;97258;-72
2023/04/07 03:32:40;;;;;;;10.50;6.10;;;;;;;10.27;34.67;101543.22;5012167;28;97055;-69
2023/04/07 03:35:07;;;;;;;14.80;6.30;;;;;;;10.26;34.77;101545.91;5007511;28;99151;-69
2023/04/07 03:37:33;;;;;;;10.50;6.05;;;;;;;10.32;34.58;101541.34;5014257;28;100875;-71
2023/04/07 03:40:00;;;;;;;10.45;6.20;;;;;;;10.35;35.00;101540.44;5003328;28;96971;-70
2023/04/07 03:42:26;;;;;;;12.32;5.97;;;;;;;10.28;35.03;101537.03;5011705;28;97660;-69
2023/04/07 03:44:52;;;;;;;10.68;5.95;;;;;;;10.28;35.05;101533.53;5007316;28;101572;-70
2023/04/07 03:47:21;;;;;;;13.93;6.03;;;;;;;10.23;35.38;101535.41;5008317;28;100933;-69
2023/04/07 03:49:48;;;;;;;13.70;6.05;;;;;;;10.18;35.21;101539.91;4999592;28;97752;-70
2023/04/07 03:52:14;;;;;;;16.48;6.90;;;;;;;10.20;35.37;101532.81;5008264;28;97223;-69
2023/04/07 03:54:41;;;;;;;11.50;6.70;;;;;;;10.09;35.38;101529.50;5011077;28;99297;-70
2023/04/07 03:57:08;;;;;;;11.55;6.15;;;;;;;10.25;35.43;101534.47;5013204;28;99188;-69
2023/04/07 03:59:34;;;;;;;16.35;6.38;;;;;;;10.33;35.22;101534.28;5000602;28;98953;-70
2023/04/07 04:02:00;;;;;;;12.98;6.55;;;;;;;10.42;35.30;101536.75;5008638;28;97138;-71
2023/04/07 04:04:28;;;;;;;17.95;8.27;;;;;;;10.20;35.61;101532.81;5001684;28;98964;-69
2023/04/07 04:06:54;;;;;;;12.65;6.20;;;;;;;10.24;35.20;101531.88;5008152;28;98021;-71
2023/04/07 04:09:21;;;;;;;12.32;6.75;;;;;;;10.25;35.38;101536.22;5015908;28;96869;-71
2023/04/07 04:11:47;;;;;;;16.08;6.88;;;;;;;10.04;36.14;101541.94;5006774;28;96969;-70
2023/04/07 04:14:14;;;;;;;14.38;6.80;;;;;;;10.26;35.70;101540.63;5010138;28;98838;-70
2023/04/07 04:16:41;;;;;;;15.60;6.78;;;;;;;10.04;35.71;101544.59;5003448;28;99210;-71
2023/04/07 04:19:07;;;;;;;11.40;6.63;;;;;;;10.12;35.88;101545.28;5004668;28;97684;-70
2023/04/07 04:21:35;;;;;;;15.43;7.38;;;;;;;10.11;35.83;101540.94;4999917;28;97075;-70
2023/04/07 04:24:02;;;;;;;10.13;6.05;;;;;;;10.16;35.99;101539.06;5007345;28;98823;-69
2023/04/07 04:26:29;;;;;;;12.77;7.03;;;;;;;10.16;35.91;101534.63;5004842;28;99288;-70
2023/04/07 04:28:55;;;;;;;11.63;6.90;;;;;;;10.10;35.99;101549.75;5011875;28;96923;-70
2023/04/07 04:31:21;;;;;;;14.75;7.15;;;;;;;10.11;35.90;101547.03;5009935;28;97164;-69
2023/04/07 04:33:48;;;;;;;13.55;6.93;;;;;;;10.31;35.68;101541.38;5000058;28;99267;-71
2023/04/07 04:36:14;;;;;;;11.57;6.60;;;;;;;10.35;35.31;101540.44;5011301;28;101201;-71
2023/04/07 04:38:42;;;;;;;13.80;6.97;;;;;;;10.02;36.29;101543.75;5006539;28;99119;-69
2023/04/07 04:41:08;;;;;;;11.88;6.82;;;;;;;10.25;36.08;101549.44;5009823;28;97309;-69
2023/04/07 04:43:34;;;;;;;14.32;7.28;;;;;;;10.30;35.81;101542.31;5005798;28;99359;-69
2023/04/07 04:46:01;;;;;;;14.77;6.97;;;;;;;10.19;36.10;101539.00;5001752;28;98821;-69
2023/04/07 04:48:27;;;;;;;12.48;7.50;;;;;;;10.24;36.20;101545.09;5016971;28;97238;-70
2023/04/07 04:50:53;;;;;;;12.65;7.00;;;;;;;10.07;36.49;101547.16;5010921;28;96899;-69
2023/04/07 04:53:20;;;;;;;18.55;8.15;;;;;;;10.01;36.92;101550.78;5010482;28;99394;-71
2023/04/07 04:55:50;;;;;;;15.48;7.57;;;;;;;9.96;36.70;101553.53;5004415;28;98862;-69
2023/04/07 04:58:17;;;;;;;13.15;7.75;;;;;;;9.97;36.98;101549.13;5011130;28;96925;-70
2023/04/07 05:00:44;;;;;;;12.52;6.80;;;;;;;9.94;37.00;101554.47;5003869;28;99461;-70
2023/04/07 05:03:10;;;;;;;13.05;8.10;;;;;;;9.75;37.27;101555.72;5006476;28;98895;-71
2023/04/07 05:05:36;;;;;;;13.40;7.55;;;;;;;9.90;37.35;101552.78;4999883;28;99157;-71
2023/04/07 05:08:03;;;;;;;15.98;7.57;;;;;;;9.90;37.31;101553.66;5010517;28;96913;-70
2023/04/07 05:10:29;;;;;;;13.35;7.78;;;;;;;9.98;37.06;101559.63;5009052;28;98944;-70
2023/04/07 05:12:57;;;;;;;14.15;7.30;;;;;;;9.87;37.34;101564.28;5004895;28;99235;-70
2023/04/07 05:15:23;;;;;;;12.00;7.95;;;;;;;9.79;37.50;101566.19;5016197;28;99975;-69
2023/04/07 05:17:50;;;;;;;14.20;7.50;;;;;;;9.89;37.42;101566.88;5012162;28;97039;-70
2023/04/07 05:20:16;;;;;;;13.40;7.35;;;;;;;9.99;36.99;101571.94;5014085;28;97407;-70
2023/04/07 05:22:43;;;;;;;11.95;7.20;;;;;;;10.08;37.10;101567.38;5013102;28;99509;-71
2023/04/07 05:25:09;;;;;;;18.13;8.40;;;;;;;10.22;36.98;101568.88;5009253;28;98614;-70
2023/04/07 05:27:36;;;;;;;14.85;7.50;;;;;;;10.05;37.25;101562.16;5005035;28;97310;-70
2023/04/07 05:30:04;;;;;;;17.48;7.80;;;;;;;10.15;37.03;101563.72;5007611;28;97689;-69
2023/04/07 05:32:31;;;;;;;14.23;7.95;;;;;;;10.29;36.74;101566.97;5004621;28;98818;-72
2023/04/07 05:34:57;;;;;;;14.48;7.93;;;;;;;10.10;36.75;101555.03;5004738;28;99416;-72
2023/04/07 05:37:23;;;;;;;14.80;7.72;;;;;;;10.12;37.12;101559.34;5010341;28;96820;-70
2023/04/07 05:39:50;;;;;;;16.10;7.45;;;;;;;10.26;37.12;101559.09;5008465;28;97014;-70
2023/04/07 05:42:16;;;;;;;14.82;7.82;;;;;;;10.20;37.06;101557.47;5004549;28;100362;-70
2023/04/07 05:44:43;;;;;;;15.25;8.60;;;;;;;10.24;37.08;101556.47;4998894;28;99087;-70
2023/04/07 05:47:10;;;;;;;16.30;7.85;;;;;;;10.45;37.11;101552.50;5001013;28;97000;-70
2023/04/07 05:49:44;;;;;;;18.77;8.45;;;;;;;10.47;36.63;101561.28;5005968;28;96835;-70
2023/04/07 05:52:10;;;;;;;14.48;8.27;;;;;;;10.53;36.69;101553.22;5007755;28;97711;-70
2023/04/07 05:54:38;;;;;;;14.13;7.57;;;;;;;10.69;36.47;101549.34;5003637;28;99149;-70
2023/04/07 05:57:04;;;;;;;19.48;8.70;;;;;;;10.79;36.40;101548.19;5000653;28;97061;-71
2023/04/07 05:59:31;;;;;;;17.10;8.35;;;;;;;10.76;36.48;101550.91;5005768;28;97411;-70
2023/04/07 06:01:57;;;;;;;16.40;8.00;;;;;;;10.70;36.40;101555.47;5006333;28;98940;-70
2023/04/07 06:04:25;;;;;;;14.82;7.80;;;;;;;10.75;36.66;101562.41;5011577;28;98763;-71
2023/04/07 06:06:54;;;;;;;20.95;8.02;;;;;;;10.78;36.41;101567.59;5007083;28;97760;-70
2023/04/07 06:09:20;;;;;;;14.73;7.72;;;;;;;10.66;36.59;101562.59;5005500;28;99525;-70
2023/04/07 06:11:46;;;;;;;13.43;8.05;;;;;;;10.51;36.75;101568.22;5004745;28;102418;-70
2023/04/07 06:14:13;;;;;;;14.48;7.60;;;;;;;10.74;36.77;101565.94;5000836;28;99280;-69
2023/04/07 06:16:40;;;;;;;15.75;7.32;;;;;;;10.77;36.67;101571.16;5009609;28;97268;-70
2023/04/07 06:19:07;;;;;;;12.73;7.78;;;;;;;10.62;36.72;101573.28;5006793;28;96839;-73
2023/04/07 06:21:35;;;;;;;18.25;7.90;;;;;;;10.64;37.00;101577.63;5001692;28;99458;-69
2023/04/07 06:24:01;;;;;;;13.65;8.25;;;;;;;10.83;36.67;101574.59;5005369;28;100780;-69
2023/04/07 06:26:28;;;;;;;18.13;8.00;;;;;;;10.77;36.79;101576.44;5004507;28;96698;-69
2023/04/07 06:28:54;;;;;;;15.60;7.72;;;;;;;10.82;36.79;101568.41;5006499;28;96994;-69
2023/04/07 06:31:21;;;;;;;16.15;8.35;;;;;;;10.76;36.90;101577.34;4996110;28;101861;-70
2023/04/07 06:33:47;;;;;;;18.00;8.25;;;;;;;10.90;36.73;101581.44;4999864;28;97977;-72
2023/04/07 06:36:13;;;;;;;16.65;8.00;;;;;;;10.90;36.77;101581.44;5007223;28;97335;-70
2023/04/07 06:38:41;;;;;;;15.30;8.45;;;;;;;10.88;37.05;101578.84;5007173;28;96985;-70
2023/04/07 06:41:10;;;;;;;16.58;8.05;;;;;;;10.96;36.78;101578.69;5004712;28;101633;-70
2023/04/07 06:43:37;;;;;;;15.15;8.00;;;;;;;10.94;37.01;101580.47;5000161;28;99406;-70
2023/04/07 06:46:03;;;;;;;15.18;7.85;;;;;;;11.00;37.04;101580.34;5004210;28;97063;-72
2023/04/07 06:48:30;;;;;;;15.38;8.07;;;;;;;11.12;36.99;101577.38;5008294;28;96830;-72
2023/04/07 06:50:56;;;;;;;19.50;9.60;;;;;;;11.03;36.86;101578.47;5006130;28;97368;-69
2023/04/07 06:53:22;;;;;;;13.20;8.23;;;;;;;11.19;36.92;101577.19;5002893;28;99387;-69
2023/04/07 06:55:50;;;;;;;16.25;8.70;;;;;;;11.28;36.85;101572.59;4997547;28;98230;-70
2023/04/07 06:58:16;;;;;;;15.23;8.48;;;;;;;11.31;36.72;101577.78;5011573;28;97719;-70
2023/04/07 07:00:43;;;;;;;13.95;8.15;;;;;;;11.20;36.92;101575.44;5008002;28;99486;-70
2023/04/07 07:03:10;;;;;;;18.38;8.35;;;;;;;11.19;36.95;101584.25;5002496;28;98875;-70
2023/04/07 07:05:36;;;;;;;17.50;8.82;;;;;;;11.26;37.27;101584.97;5011250;28;98943;-71
2023/04/07 07:08:02;;;;;;;17.52;9.02;;;;;;;11.19;37.26;101577.19;5008239;28;96821;-69
2023/04/07 07:10:29;;;;;;;16.02;8.80;;;;;;;11.41;36.79;101585.47;5003631;28;99485;-72
2023/04/07 07:12:57;;;;;;;15.05;8.45;;;;;;;11.64;36.76;101584.84;4998397;28;101912;-71
2023/04/07 07:15:23;;;;;;;17.83;8.93;;;;;;;11.32;37.42;101590.13;5006722;28;97060;-70
2023/04/07 07:17:50;;;;;;;15.68;8.73;;;;;;;11.69;36.65;101587.38;5005055;28;98630;-71
2023/04/07 07:20:17;;;;;;;16.75;8.60;;;;;;;12.00;36.42;101588.31;5008511;28;98916;-70
2023/04/07 07:22:43;;;;;;;15.98;8.82;;;;;;;11.81;36.70;101589.75;5008103;28;101272;-71
2023/04/07 07:25:10;;;;;;;16.17;7.90;;;;;;;11.97;36.19;101591.06;5011664;28;97376;-70
2023/04/07 07:27:36;;;;;;;13.27;7.70;;;;;;;12.12;36.12;101585.31;5010107;28;97316;-71
2023/04/07 07:30:06;;;;;;;12.35;7.93;;;;;;;12.08;35.64;101581.00;5013373;28;98304;-71
2023/04/07 07:32:32;;;;;;;15.38;7.75;;;;;;;11.98;35.76;101592.78;5010542;28;99374;-71
2023/04/07 07:34:59;;;;;;;15.25;7.93;;;;;;;12.40;35.30;101589.84;5001277;28;98564;-70
2023/04/07 07:37:25;;;;;;;26.85;8.88;;;;;;;12.59;34.81;101594.53;5004424;28;97289;-70
2023/04/07 07:39:52;;;;;;;15.88;7.18;;;;;;;12.68;34.02;101596.00;5006760;28;100016;-70
2023/04/07 07:42:18;;;;;;;14.32;6.68;;;;;;;12.92;32.60;101595.28;5005137;28;100863;-70
2023/04/07 07:44:45;;;;;;;9.95;5.72;;;;;;;12.81;31.09;101597.38;5008673;28;97154;-73
2023/04/07 07:47:12;;;;;;;11.50;5.50;;;;;;;12.88;30.35;101595.41;5004072;28;98827;-71
2023/04/07 07:49:40;;;;;;;10.13;5.82;;;;;;;13.14;30.66;101595.47;5006972;28;99092;-71
2023/04/07 07:52:07;;;;;;;12.93;6.13;;;;;;;12.92;30.88;101605.00;5006888;28;98841;-74
2023/04/07 07:54:34;;;;;;;13.05;5.53;;;;;;;13.13;30.31;101591.94;5005635;28;97911;-71
2023/04/07 07:57:01;;;;;;;11.10;5.50;;;;;;;13.60;29.59;101599.22;5004953;28;97688;-71
2023/04/07 07:59:28;;;;;;;9.48;5.40;;;;;;;13.61;28.53;101596.53;5003197;28;99345;-73
2023/04/07 08:01:54;;;;;;;12.45;5.18;;;;;;;13.54;28.41;101605.63;4995773;28;98877;-71
2023/04/07 08:04:23;;;;;;;11.27;4.95;;;;;;;12.94;29.21;101598.72;5007298;28;97368;-70
2023/04/07 08:06:49;;;;;;;9.90;5.13;;;;;;;13.47;28.63;101606.75;5003313;28;96900;-71
2023/04/07 08:09:16;;;;;;;12.30;5.53;;;;;;;13.35;28.82;101600.06;5003614;28;99510;-71
2023/04/07 08:11:42;;;;;;;9.63;5.10;;;;;;;13.36;28.66;101598.28;4992412;28;100243;-67
2023/04/07 08:14:09;;;;;;;10.73;5.50;;;;;;;13.16;29.08;101598.94;4996044;28;101442;-68
2023/04/07 08:16:35;;;;;;;10.02;5.10;;;;;;;13.40;28.80;101600.78;4996968;28;97006;-68
2023/04/07 08:19:02;;;;;;;8.55;4.57;;;;;;;13.38;27.73;101613.25;4999897;28;99125;-68
2023/04/07 08:21:30;;;;;;;6.28;4.05;;;;;;;13.36;27.02;101614.22;4996542;28;98787;-69
2023/04/07 08:23:57;;;;;;;7.72;3.97;;;;;;;13.56;26.62;101611.75;4992407;28;98866;-69
2023/04/07 08:26:23;;;;;;;8.90;3.92;;;;;;;13.68;25.98;101610.47;4996935;28;98038;-70
2023/04/07 08:28:51;;;;;;;9.95;4.63;;;;;;;13.90;26.14;101606.16;4992117;28;99072;-69
2023/04/07 08:31:17;;;;;;;9.82;4.30;;;;;;;14.04;25.95;101610.97;4995487;28;98650;-68
2023/04/07 08:33:44;;;;;;;8.38;4.50;;;;;;;14.08;25.79;101602.81;4992042;28;97077;-71
2023/04/07 08:36:10;;;;;;;12.23;5.88;;;;;;;14.26;25.53;101598.59;4995022;28;97829;-70
2023/04/07 08:38:38;;;;;;;11.05;4.57;;;;;;;14.40;25.50;101606.97;4997536;28;99190;-71
2023/04/07 08:41:17;;;;;;;8.32;4.60;;;;;;;14.42;25.15;101597.16;4987453;28;100464;-71
2023/04/07 08:43:45;;;;;;;7.38;4.25;;;;;;;14.73;25.07;101596.84;4996411;28;99461;-70
2023/04/07 08:46:13;;;;;;;6.55;4.10;;;;;;;14.65;25.16;101604.25;4996902;28;97257;-72
2023/04/07 08:48:44;;;;;;;9.20;4.30;;;;;;;14.65;25.57;101604.25;4998910;28;99297;-70
2023/04/07 08:51:13;;;;;;;9.00;4.50;;;;;;;14.77;25.43;101602.91;4996437;28;98999;-70
2023/04/07 08:53:46;;;;;;;7.60;4.03;;;;;;;14.72;25.17;101603.06;4990797;28;98366;-70
2023/04/07 08:56:13;;;;;;;11.45;4.35;;;;;;;14.48;25.02;101610.22;4996486;28;97373;-71
2023/04/07 08:58:40;;;;;;;7.45;3.75;;;;;;;14.41;25.10;101611.38;4995289;28;99116;-72
2023/04/07 09:01:08;;;;;;;10.15;4.20;;;;;;;14.23;25.46;101620.00;4993775;28;99028;-69
2023/04/07 09:03:34;;;;;;;6.80;3.45;;;;;;;13.93;25.84;101627.28;5002719;28;98087;-69
2023/04/07 09:06:02;;;;;;;5.72;3.22;;;;;;;14.01;25.72;101616.38;5007517;28;97515;-72
2023/04/07 09:08:28;;;;;;;7.53;3.67;;;;;;;14.33;25.96;101619.59;5006969;28;99351;-72
2023/04/07 09:10:57;;;;;;;8.75;3.90;;;;;;;14.57;25.61;101622.31;5000117;28;100142;-71
2023/04/07 09:13:24;;;;;;;5.60;3.35;;;;;;;14.58;24.88;101630.19;4992881;28;97261;-72
2023/04/07 09:15:51;;;;;;;8.23;3.17;;;;;;;14.66;24.50;101619.28;5010753;28;96969;-71
2023/04/07 09:18:18;;;;;;;7.65;3.22;;;;;;;14.63;24.45;101630.06;5004174;28;99199;-71
2023/04/07 09:20:58;;;;;;;4.20;2.22;;;;;;;14.23;23.12;101630.63;4998043;28;103953;-71
2023/04/07 09:23:29;;;;;;;4.40;2.90;;;;;;;13.98;23.12;101626.19;4996712;28;98890;-72
2023/04/07 09:25:58;;;;;;;4.30;2.70;;;;;;;14.19;22.95;101621.03;5005579;28;97097;-70
2023/04/07 09:28:25;;;;;;;4.38;2.30;;;;;;;13.93;23.28;101627.28;5002264;28;100451;-71
2023/04/07 09:30:55;;;;;;;5.50;2.58;;;;;;;13.69;23.38;101626.34;4997549;28;98754;-71
2023/04/07 09:33:27;;;;;;;3.72;2.65;;;;;;;13.52;24.29;101631.38;4997601;28;97273;-72
2023/04/07 09:35:54;;;;;;;4.60;2.83;;;;;;;13.55;24.67;101628.59;5002616;28;98969;-71
2023/04/07 09:38:21;;;;;;;4.03;2.83;;;;;;;13.60;25.09;101637.28;4995070;28;99063;-72
2023/04/07 09:40:48;;;;;;;4.90;3.00;;;;;;;13.72;25.41;101636.84;5004716;28;98779;-73
2023/04/07 09:43:17;;;;;;;6.43;3.22;;;;;;;13.58;25.50;101636.47;4998159;28;97330;-74
2023/04/07 09:45:44;;;;;;;5.47;3.40;;;;;;;13.65;25.96;101634.50;4999692;28;97554;-73
2023/04/07 09:48:19;;;;;;;4.25;2.97;;;;;;;13.67;25.12;101638.81;5008668;28;99055;-72
2023/04/07 09:50:48;;;;;;;9.57;3.00;;;;;;;13.50;24.96;101639.38;5002978;28;98930;-73
2023/04/07 09:53:15;;;;;;;4.82;2.25;;;;;;;13.45;25.09;101635.16;5009522;28;97087;-72
2023/04/07 09:55:42;;;;;;;5.95;2.80;;;;;;;13.60;25.22;101636.41;5002225;28;99004;-73
2023/04/07 09:58:11;;;;;;;4.28;2.63;;;;;;;13.58;25.63;101639.13;5006650;28;99255;-72
2023/04/07 10:00:40;;;;;;;9.43;3.67;;;;;;;13.78;26.03;101633.16;4999009;28;98943;-71
2023/04/07 10:03:07;;;;;;;5.35;3.15;;;;;;;13.79;26.05;101638.38;5002861;28;98882;-73
2023/04/07 10:05:35;;;;;;;6.75;3.47;;;;;;;13.96;25.97;101638.69;5004580;28;99845;-72
2023/04/07 10:08:02;;;;;;;7.47;3.38;;;;;;;14.02;26.48;101644.69;5002961;28;100865;-72
2023/04/07 10:10:30;;;;;;;6.50;3.60;;;;;;;14.00;26.10;101635.91;4993375;28;99006;-73
2023/04/07 10:12:57;;;;;;;5.40;3.33;;;;;;;13.98;26.44;101631.50;5003435;28;96910;-72
2023/04/07 10:15:24;;;;;;;6.93;3.00;;;;;;;14.01;26.58;101627.00;5000014;28;96929;-73
2023/04/07 10:17:55;;;;;;;5.97;3.05;;;;;;;14.09;26.50;101633.78;5007605;28;99146;-72
2023/04/07 10:20:23;;;;;;;8.32;3.70;;;;;;;13.76;26.75;101634.97;5001014;28;99134;-71
2023/04/07 10:22:52;;;;;;;7.03;3.10;;;;;;;13.95;26.79;101638.72;5005153;28;97675;-72
2023/04/07 10:25:22;;;;;;;8.30;3.45;;;;;;;13.98;26.60;101633.28;5003567;28;97399;-73
2023/04/07 10:27:51;;;;;;;6.63;3.45;;;;;;;13.84;26.91;101633.81;5002546;28;98653;-73
2023/04/07 10:30:23;;;;;;;7.82;3.45;;;;;;;13.59;26.97;101640.84;5005934;28;98869;-74
2023/04/07 10:32:51;;;;;;;5.85;3.22;;;;;;;13.41;27.32;101639.69;5003616;28;97866;-74
2023/04/07 10:35:19;;;;;;;5.90;3.17;;;;;;;13.37;27.66;101643.38;4992101;28;98746;-72
2023/04/07 10:38:12;;;;;;;5.05;3.10;;;;;;;13.29;27.74;101636.56;5005629;28;99777;-73
2023/04/07 10:40:39;;;;;;;6.53;3.10;;;;;;;13.43;27.95;101640.50;4994292;28;99577;-73
2023/04/07 10:43:09;;;;;;;5.53;2.80;;;;;;;13.43;28.12;101634.34;5011922;28;97082;-73
2023/04/07 10:46:01;;;;;;;5.13;3.10;;;;;;;13.48;28.25;101637.69;5002917;28;97576;-72
2023/04/07 10:48:32;;;;;;;7.15;3.55;;;;;;;13.52;28.52;101634.03;5007563;28;99161;-71
2023/04/07 10:51:16;;;;;;;9.75;3.03;;;;;;;14.01;28.26;101632.31;5010055;28;96740;-74
2023/04/07 10:54:16;;;;;;;6.45;3.20;;;;;;;13.96;28.29;101641.34;5009340;28;98964;-72
2023/04/07 10:57:06;;;;;;;11.63;3.35;;;;;;;14.35;28.07;101622.22;4933747;28;98130;-71
2023/04/07 10:59:34;;;;;;;7.18;3.05;;;;;;;14.47;28.31;101627.09;4928353;28;98945;-71
2023/04/07 11:02:32;;;;;;;6.75;3.45;;;;;;;14.51;28.70;101631.34;4975543;28;99081;-73
2023/04/07 11:04:58;;;;;;;10.15;3.47;;;;;;;14.44;29.80;101629.84;5001270;28;97714;-72
2023/04/07 11:07:44;;;;;;;6.35;3.75;;;;;;;13.98;31.32;101635.94;5008774;28;96844;-73
2023/04/07 11:10:12;;;;;;;7.20;3.22;;;;;;;14.06;32.20;101638.34;5004808;28;99900;-73
2023/04/07 11:12:38;;;;;;;5.55;2.75;;;;;;;13.88;33.14;101632.75;4997237;28;98932;-73
2023/04/07 11:15:17;;;;;;;6.70;3.40;;;;;;;14.00;34.65;101636.75;4999751;28;98429;-72
2023/04/07 11:17:43;;;;;;;6.68;3.45;;;;;;;13.76;36.16;101638.50;5010198;28;96879;-72
2023/04/07 11:20:10;;;;;;;6.90;3.72;;;;;;;13.75;36.54;101641.22;5000334;28;97702;-73
2023/04/07 11:22:37;;;;;;;5.45;3.75;;;;;;;13.72;37.27;101636.84;5009967;28;97778;-72